FYKM

Katima Mulilo Airport

Airport
ICAO code
FYKM
IATA Code
MPA
Summary
ICAO Region
AFI
ICAO Territory
Location

B8, Zambezi

Serving
Katima Mulilo
Elevation
3144 ft
Coordinates
17° 37' 60" S , 24° 10' 50" E
KCC
Metar
FYKM 272100Z AUTO 06002KT //// // ////// 15/04 Q1024

Katima Mulilo Airport, also known as Mpacha Airport, serves Katima Mulilo, the capital of the Zambezi Region in Namibia.

Climatology

Warm, semi-arid/Steppe climate (Köppen climate classification BSh)

Runways

Designator Length Width Surface Rops
9/27 2292 39 ASP No/No

Airport map

Aerial View

SKYbrary Partners:

Safety knowledge contributed by: